Time;durP1;ratioP1;P1;durP2;ratioP2;P2;SDS_P1;SDS_P2;PMS_P1;PMS_P2;Temp;Humidity;BMP_temperature;BMP_pressure;BME280_temperature;BME280_humidity;BME280_pressure;Samples;Min_cycle;Max_cycle;Signal;HPM_P1;HPM_P2
2022/06/20 00:01:33;;;;;;;3.33;1.63;;;15.40;99.90;;;15.39;75.37;100412.13;5025667;28;20463;-73
2022/06/20 00:04:04;;;;;;;4.23;1.80;;;15.30;99.90;;;15.35;75.75;100432.75;5019131;28;20454;-71
2022/06/20 00:06:33;;;;;;;4.90;2.53;;;15.20;99.90;;;15.25;75.94;100465.31;5025742;28;20515;-71
2022/06/20 00:09:03;;;;;;;4.73;2.17;;;15.10;99.90;;;15.13;76.00;100473.50;5022775;28;20436;-72
2022/06/20 00:11:40;;;;;;;4.80;2.20;;;15.00;99.90;;;15.00;77.26;100469.16;5018999;28;20457;-70
2022/06/20 00:14:14;;;;;;;5.97;2.10;;;15.00;99.90;;;14.86;78.04;100495.03;5018971;28;20459;-72
2022/06/20 00:16:44;;;;;;;6.83;2.20;;;14.80;99.90;;;14.73;78.62;100481.66;5008981;28;20476;-73
2022/06/20 00:19:16;;;;;;;3.37;1.80;;;14.70;99.90;;;14.69;78.76;100508.53;5020120;28;20444;-71
2022/06/20 00:21:45;;;;;;;2.70;2.30;;;14.60;99.90;;;14.66;79.82;100524.53;5018222;28;20469;-72
2022/06/20 00:24:15;;;;;;;4.33;2.60;;;14.60;99.90;;;14.59;79.15;100561.94;5020134;28;20491;-71
2022/06/20 00:26:44;;;;;;;2.97;2.47;;;14.50;99.90;;;14.51;79.61;100603.13;5025823;28;20440;-71
2022/06/20 00:29:13;;;;;;;7.80;3.27;;;14.50;99.90;;;14.57;79.86;100646.59;5025265;28;20937;-73
2022/06/20 00:31:42;;;;;;;3.03;2.63;;;14.50;99.90;;;14.48;79.95;100650.72;5019225;28;20959;-72
2022/06/20 00:34:13;;;;;;;5.93;2.87;;;14.40;99.90;;;14.56;81.28;100665.91;5014040;28;20708;-73
2022/06/20 00:36:43;;;;;;;10.83;2.70;;;14.50;99.90;;;14.66;81.88;100657.97;5018003;28;20472;-71
2022/06/20 00:39:13;;;;;;;4.20;2.60;;;14.50;99.90;;;14.62;80.23;100640.47;5011993;28;20440;-73
2022/06/20 00:41:43;;;;;;;6.03;2.67;;;14.50;99.90;;;14.62;80.17;100643.97;5016662;28;21006;-72
2022/06/20 00:44:20;;;;;;;5.47;2.40;;;14.50;99.90;;;14.71;80.09;100660.84;5023092;28;20448;-70
2022/06/20 00:46:56;;;;;;;4.53;2.60;;;14.50;99.90;;;14.70;80.80;100676.34;5016421;28;20461;-72
2022/06/20 00:49:32;;;;;;;3.10;2.80;;;14.60;99.90;;;14.70;79.92;100700.03;5014183;28;20451;-71
2022/06/20 00:52:13;;;;;;;7.10;2.50;;;14.60;99.90;;;14.66;80.57;100691.50;5020001;28;20763;-71
2022/06/20 00:54:51;;;;;;;3.50;2.40;;;14.60;99.90;;;14.84;79.42;100668.78;5024551;28;20979;-73
2022/06/20 00:57:28;;;;;;;8.00;3.07;;;14.60;99.90;;;14.81;78.87;100643.91;5008154;28;20479;-72
2022/06/20 01:00:06;;;;;;;3.00;2.40;;;14.70;99.90;;;14.96;77.92;100634.19;5019366;28;20468;-74
2022/06/20 01:02:40;;;;;;;4.30;2.27;;;14.70;99.90;;;14.97;77.98;100632.28;5023760;28;20464;-71
2022/06/20 01:05:21;;;;;;;6.53;2.50;;;14.80;99.90;;;15.04;78.18;100633.00;5019325;28;20471;-72
2022/06/20 01:07:57;;;;;;;6.73;2.50;;;14.80;99.90;;;15.08;77.34;100645.91;5026939;28;20442;-72
2022/06/20 01:10:31;;;;;;;3.20;1.80;;;14.80;99.90;;;15.14;75.65;100653.16;5021098;28;20463;-71
2022/06/20 01:13:04;;;;;;;3.43;2.33;;;14.90;99.90;;;15.10;76.33;100632.88;5030831;28;20833;-73
2022/06/20 01:15:38;;;;;;;3.43;2.07;;;14.90;99.90;;;15.13;75.52;100635.13;5018005;28;20448;-72
2022/06/20 01:18:20;;;;;;;4.67;2.30;;;15.00;99.90;;;15.08;76.18;100645.91;5027344;28;20458;-72
2022/06/20 01:20:54;;;;;;;3.50;2.57;;;14.90;99.90;;;15.02;77.32;100633.22;5034209;28;20435;-72
2022/06/20 01:23:43;;;;;;;6.03;2.27;;;14.90;99.90;;;14.94;77.68;100562.75;5020916;28;20451;-73
2022/06/20 01:26:40;;;;;;;5.90;2.70;;;14.80;99.90;;;14.89;78.45;100548.19;5020310;28;20814;-72
2022/06/20 01:29:13;;;;;;;2.40;2.20;;;14.80;99.90;;;15.00;79.12;100605.41;5024324;28;20435;-72
2022/06/20 01:31:47;;;;;;;2.43;2.20;;;14.80;99.90;;;14.95;79.63;100657.06;5030384;28;20463;-70
2022/06/20 01:34:18;;;;;;;6.33;2.80;;;14.90;99.90;;;14.74;80.61;100654.91;5020348;28;20448;-71
2022/06/20 01:39:42;;;;;;;5.80;2.93;;;14.70;99.90;;;14.76;80.28;100650.88;5028981;28;20811;-71
2022/06/20 01:42:19;;;;;;;7.37;3.17;;;14.70;99.90;;;14.69;80.93;100679.28;5029391;28;20490;-72
2022/06/20 01:44:55;;;;;;;3.73;2.90;;;14.60;99.90;;;14.67;80.82;100675.97;5023521;28;20846;-72
2022/06/20 01:47:24;;;;;;;3.77;2.50;;;14.60;99.90;;;14.69;81.05;100685.56;5017615;28;20969;-72
2022/06/20 01:50:00;;;;;;;4.70;2.73;;;14.60;99.90;;;14.73;80.86;100692.19;5031312;28;20443;-72
2022/06/20 01:52:36;;;;;;;3.90;2.97;;;14.60;99.90;;;14.59;80.44;100684.47;5020498;28;20632;-72
2022/06/20 01:55:11;;;;;;;4.97;2.30;;;14.50;99.90;;;14.65;80.03;100678.09;5016722;28;20440;-73
2022/06/20 01:57:45;;;;;;;4.87;3.10;;;14.50;99.90;;;14.72;80.43;100681.53;5017250;28;20466;-72
2022/06/20 02:00:20;;;;;;;6.50;2.70;;;14.60;99.90;;;14.74;80.06;100676.69;5016333;28;20533;-73
2022/06/20 02:02:55;;;;;;;3.90;3.50;;;14.50;99.90;;;14.71;79.32;100660.84;5030409;28;20528;-70
2022/06/20 02:05:30;;;;;;;7.97;3.03;;;14.60;99.90;;;14.56;80.44;100619.59;5023439;28;20439;-73
2022/06/20 02:08:04;;;;;;;5.57;3.07;;;14.50;99.90;;;14.68;80.96;100612.25;5022127;28;20531;-71
2022/06/20 02:10:44;;;;;;;6.73;3.20;;;14.50;99.90;;;14.66;80.97;100630.75;5018162;28;20444;-71
2022/06/20 02:13:16;;;;;;;5.73;3.00;;;14.50;99.90;;;14.69;80.95;100630.28;5020850;28;20442;-74
2022/06/20 02:15:52;;;;;;;6.73;2.57;;;14.60;99.90;;;14.55;82.08;100631.56;5028026;28;20443;-72
2022/06/20 02:18:22;;;;;;;3.83;2.50;;;14.50;99.90;;;14.60;82.15;100645.28;5017989;28;20443;-72
2022/06/20 02:20:56;;;;;;;3.93;3.30;;;14.50;99.90;;;14.62;82.38;100624.13;5026766;28;20448;-72
2022/06/20 02:23:34;;;;;;;4.27;3.20;;;14.50;99.90;;;14.77;82.01;100605.41;5027537;28;20432;-72
2022/06/20 02:26:06;;;;;;;6.13;3.10;;;14.50;99.90;;;14.67;81.86;100616.88;5025550;28;20849;-71
2022/06/20 02:28:46;;;;;;;3.83;3.13;;;14.50;99.90;;;14.75;81.42;100622.00;5018674;28;20445;-72
2022/06/20 02:31:18;;;;;;;3.30;2.73;;;14.60;99.90;;;14.91;80.28;100628.59;5025307;28;20464;-72
2022/06/20 02:33:49;;;;;;;5.40;2.80;;;14.70;99.90;;;14.87;79.28;100623.88;5023742;28;20527;-73
2022/06/20 02:36:18;;;;;;;2.50;2.20;;;14.70;99.90;;;14.83;79.96;100628.97;5025179;28;20456;-72
2022/06/20 02:38:47;;;;;;;3.20;2.40;;;14.60;99.90;;;14.83;79.50;100631.69;5022869;28;20490;-71
2022/06/20 02:41:24;;;;;;;4.93;2.87;;;14.60;99.90;;;14.87;78.97;100605.63;5020146;28;20836;-72
2022/06/20 02:44:01;;;;;;;3.80;2.70;;;14.70;99.90;;;14.75;79.55;100586.59;5027990;28;20467;-71
2022/06/20 02:46:33;;;;;;;6.50;4.07;;;14.60;99.90;;;14.82;78.52;100586.44;5023154;28;20491;-73
2022/06/20 02:49:09;;;;;;;5.73;2.77;;;14.60;99.90;;;14.77;78.62;100584.44;5023428;28;20440;-73
2022/06/20 02:51:43;;;;;;;7.67;3.50;;;14.60;99.90;;;14.78;78.67;100571.66;5021783;28;20974;-72
2022/06/20 02:54:15;;;;;;;6.87;3.00;;;14.60;99.90;;;14.72;79.47;100548.06;5023023;28;20447;-72
2022/06/20 02:56:50;;;;;;;6.70;2.87;;;14.60;99.90;;;14.72;80.25;100542.63;5029545;28;20463;-73
2022/06/20 02:59:26;;;;;;;6.13;3.90;;;14.60;99.90;;;14.70;81.13;100523.00;5028872;28;20795;-72
2022/06/20 03:02:05;;;;;;;5.83;3.30;;;14.60;99.90;;;14.72;81.15;100534.47;5027063;28;20486;-72
2022/06/20 03:04:40;;;;;;;4.13;3.30;;;14.60;99.90;;;14.78;80.08;100525.34;5018606;28;20415;-74
2022/06/20 03:07:15;;;;;;;4.57;3.70;;;14.60;99.90;;;14.82;79.71;100520.22;5025849;28;20451;-71
2022/06/20 03:09:48;;;;;;;14.00;5.03;;;14.60;99.90;;;14.83;80.18;100522.72;5019477;28;20523;-72
2022/06/20 03:12:17;;;;;;;9.27;3.70;;;14.70;99.90;;;14.94;79.68;100545.59;5028332;28;20458;-72
2022/06/20 03:14:52;;;;;;;5.27;4.00;;;14.80;99.90;;;14.88;78.91;100557.44;5030512;28;20476;-72
2022/06/20 03:17:24;;;;;;;4.53;3.43;;;14.70;99.90;;;14.89;79.29;100529.97;5013989;28;20958;-72
2022/06/20 03:19:59;;;;;;;6.47;3.60;;;14.70;99.90;;;14.99;78.80;100515.72;5029578;28;20448;-71
2022/06/20 03:22:36;;;;;;;7.17;3.60;;;14.80;99.90;;;14.91;77.96;100514.19;5023907;28;20555;-74
2022/06/20 03:25:11;;;;;;;3.50;3.20;;;14.80;99.90;;;15.01;77.90;100519.84;5029793;28;20443;-72
2022/06/20 03:27:41;;;;;;;5.87;3.20;;;14.80;99.90;;;15.07;76.92;100516.16;5026761;28;20418;-71
2022/06/20 03:30:30;;;;;;;6.40;3.47;;;14.90;99.90;;;15.06;77.49;100487.25;5028619;28;20922;-73
2022/06/20 03:33:07;;;;;;;5.73;3.90;;;14.90;99.90;;;15.07;76.94;100497.09;5028939;28;20460;-73
2022/06/20 03:35:39;;;;;;;8.13;3.33;;;14.90;99.90;;;15.20;76.91;100513.16;5032454;28;20467;-73
2022/06/20 03:38:12;;;;;;;5.37;4.37;;;15.00;99.90;;;15.24;76.92;100486.28;5026787;28;20476;-72
2022/06/20 03:40:41;;;;;;;9.40;3.00;;;15.00;99.90;;;15.15;75.41;100466.72;5027273;28;20449;-73
2022/06/20 03:43:16;;;;;;;4.70;3.47;;;15.00;99.90;;;15.14;75.55;100446.03;5026141;28;20464;-74
2022/06/20 03:45:54;;;;;;;6.63;3.13;;;15.10;99.90;;;15.19;76.41;100443.41;5025785;28;20496;-72
2022/06/20 03:48:31;;;;;;;4.10;3.37;;;15.00;99.90;;;15.21;74.73;100457.59;5031163;28;20441;-72
2022/06/20 03:51:09;;;;;;;3.40;3.00;;;15.00;99.90;;;15.23;76.24;100468.25;5018303;28;20440;-72
2022/06/20 03:53:45;;;;;;;4.00;2.77;;;15.00;99.90;;;15.23;74.22;100480.00;5023223;28;20448;-72
2022/06/20 03:56:30;;;;;;;4.30;2.83;;;15.10;99.90;;;15.37;73.29;100475.06;5010279;28;20819;-72
2022/06/20 03:59:08;;;;;;;4.53;2.63;;;15.20;99.90;;;15.42;72.78;100474.34;5024210;28;20475;-73
2022/06/20 04:01:45;;;;;;;7.60;3.27;;;15.20;99.90;;;15.47;73.98;100450.72;5031079;28;20451;-72
2022/06/20 04:04:25;;;;;;;6.20;4.77;;;15.30;99.90;;;15.66;73.91;100454.09;5020550;28;20444;-73
2022/06/20 04:07:00;;;;;;;4.37;3.50;;;15.40;99.90;;;15.72;74.20;100455.84;5022129;28;20446;-74
2022/06/20 04:12:29;;;;;;;7.80;3.53;;;15.60;99.90;;;17.71;66.41;100480.19;5023901;28;20451;-73
2022/06/20 04:15:10;;;;;;;4.27;3.87;;;16.40;99.90;;;18.55;64.15;100474.84;5019118;28;20433;-73
2022/06/20 04:20:45;;;;;;;5.10;2.77;;;17.30;99.90;;;18.19;62.78;100476.50;5015775;28;20410;-73
2022/06/20 04:23:23;;;;;;;4.50;2.70;;;17.60;99.50;;;17.12;65.43;100480.06;5017774;28;20469;-74
2022/06/20 04:26:00;;;;;;;6.00;3.20;;;17.10;99.90;;;16.76;67.84;100476.03;5017035;28;20902;-72
2022/06/20 04:28:44;;;;;;;4.80;3.37;;;16.80;99.90;;;16.62;68.48;100466.56;5007638;28;20451;-73
2022/06/20 04:31:22;;;;;;;4.60;3.33;;;16.50;99.90;;;16.70;69.26;100468.84;5028196;28;21044;-73
2022/06/20 04:34:04;;;;;;;4.00;3.57;;;16.40;99.90;;;16.73;67.96;100457.44;5004368;28;20444;-72
2022/06/20 04:36:45;;;;;;;8.83;3.50;;;16.40;99.90;;;16.80;68.73;100471.72;5025092;28;20471;-72
2022/06/20 04:39:24;;;;;;;6.50;3.60;;;16.50;99.90;;;17.13;67.70;100478.97;5013993;28;20483;-72
2022/06/20 04:42:01;;;;;;;5.53;2.90;;;16.60;99.90;;;17.34;66.77;100480.84;5021643;28;20882;-72
2022/06/20 04:44:40;;;;;;;4.03;3.17;;;16.70;99.90;;;17.18;66.82;100476.31;5018881;28;20440;-73
2022/06/20 04:47:30;;;;;;;11.17;4.50;;;16.80;99.90;;;16.74;68.83;100475.47;5014368;28;20458;-72
2022/06/20 04:50:00;;;;;;;5.63;3.17;;;16.60;99.90;;;16.55;70.28;100465.06;5012047;28;20455;-72
2022/06/20 04:52:32;;;;;;;6.53;3.77;;;16.40;99.90;;;16.09;71.62;100450.72;5019730;28;20465;-72
2022/06/20 04:55:02;;;;;;;4.50;3.17;;;16.10;99.90;;;15.87;72.74;100468.91;5025841;28;20452;-72
2022/06/20 04:57:35;;;;;;;4.90;3.77;;;15.90;99.90;;;15.67;73.09;100469.38;5009672;28;20448;-73
2022/06/20 05:00:09;;;;;;;7.87;4.27;;;15.70;99.90;;;15.65;73.11;100475.06;5026977;28;20521;-73
2022/06/20 05:02:38;;;;;;;8.60;4.43;;;15.60;99.90;;;15.60;73.93;100506.88;5024289;28;20460;-73
2022/06/20 05:05:16;;;;;;;6.47;4.00;;;15.50;99.90;;;15.55;74.05;100532.16;5025693;28;20559;-72
2022/06/20 05:07:49;;;;;;;4.30;3.90;;;15.40;99.90;;;15.48;75.06;100530.63;5025901;28;20443;-71
2022/06/20 05:10:29;;;;;;;8.60;4.17;;;15.40;99.90;;;15.40;76.71;100539.19;5013383;28;20900;-72
2022/06/20 05:13:06;;;;;;;11.57;5.97;;;15.30;99.90;;;15.28;78.34;100538.41;5022930;28;20559;-72
2022/06/20 05:15:41;;;;;;;13.20;4.30;;;15.20;99.90;;;15.26;77.88;100529.63;5022593;28;20775;-72
2022/06/20 05:18:23;;;;;;;5.90;4.97;;;15.20;99.90;;;15.19;79.31;100549.69;5022351;28;20579;-74
2022/06/20 05:20:58;;;;;;;6.07;4.83;;;15.10;99.90;;;15.07;79.53;100564.38;5019263;28;20476;-72
2022/06/20 05:23:40;;;;;;;11.43;4.87;;;15.00;99.90;;;15.16;79.38;100577.41;5004648;28;20628;-72
2022/06/20 05:26:17;;;;;;;6.30;4.80;;;15.00;99.90;;;14.81;79.52;100594.88;5009326;28;20551;-71
2022/06/20 05:28:49;;;;;;;6.83;4.17;;;14.80;99.90;;;14.58;81.89;100626.47;5024995;28;20450;-71
2022/06/20 05:31:35;;;;;;;5.80;4.97;;;14.60;99.90;;;14.69;81.55;100652.06;5025611;28;20539;-73
2022/06/20 05:34:16;;;;;;;5.97;4.23;;;14.60;99.90;;;14.40;82.34;100681.00;5021482;28;20450;-72
2022/06/20 05:36:55;;;;;;;8.43;5.20;;;14.40;99.90;;;14.40;83.32;100686.44;5021021;28;20957;-72
2022/06/20 05:39:33;;;;;;;6.87;4.87;;;14.40;99.90;;;14.35;84.32;100684.38;5024095;28;20838;-71
2022/06/20 05:42:04;;;;;;;8.67;4.87;;;14.30;99.90;;;14.24;84.51;100685.16;5017236;28;20467;-71
2022/06/20 05:44:33;;;;;;;11.30;4.93;;;14.20;99.90;;;14.21;85.73;100685.66;5020824;28;20450;-74
2022/06/20 05:47:08;;;;;;;4.30;3.67;;;14.20;99.90;;;14.17;86.33;100695.34;5020438;28;20637;-72
2022/06/20 05:49:48;;;;;;;9.87;5.37;;;14.10;99.90;;;14.15;85.99;100692.00;5020747;28;20458;-72
2022/06/20 05:52:23;;;;;;;8.50;5.30;;;14.10;99.90;;;14.21;86.60;100701.13;5025169;28;20945;-72
2022/06/20 05:55:03;;;;;;;10.37;5.60;;;14.10;99.90;;;14.24;87.50;100704.22;5028633;28;20458;-72
2022/06/20 05:57:36;;;;;;;8.83;5.50;;;14.20;99.90;;;14.26;87.24;100713.00;5022300;28;20764;-72
2022/06/20 06:00:18;;;;;;;8.30;5.63;;;14.20;99.90;;;14.32;87.12;100727.59;5013772;28;20471;-73
2022/06/20 06:02:53;;;;;;;10.00;6.40;;;14.20;99.90;;;14.25;87.82;100732.28;5019430;28;20828;-72
2022/06/20 06:05:30;;;;;;;11.90;6.83;;;14.20;99.90;;;14.28;87.69;100724.47;5021416;28;20479;-73
2022/06/20 06:08:08;;;;;;;13.77;7.27;;;14.20;99.90;;;14.29;87.41;100719.84;5020779;28;20443;-73
2022/06/20 06:11:05;;;;;;;9.10;6.57;;;14.20;99.90;;;14.27;87.98;100600.34;5006584;28;20452;-73
2022/06/20 06:13:44;;;;;;;11.50;6.23;;;14.20;99.90;;;14.15;88.32;100492.53;5026563;28;20469;-72
2022/06/20 06:19:25;;;;;;;10.43;6.47;;;14.00;99.90;;;13.86;91.00;100285.66;5027910;28;20465;-74
2022/06/20 06:21:59;;;;;;;8.23;6.33;;;13.90;99.90;;;13.69;91.47;100327.41;5025015;28;20475;-74
2022/06/20 06:24:41;;;;;;;8.33;7.50;;;13.70;99.90;;;13.71;92.29;100356.00;5028833;28;20450;-74
2022/06/20 06:27:23;;;;;;;10.98;7.97;;;13.70;99.90;;;13.79;92.54;100420.13;5023225;28;20433;-73
2022/06/20 06:30:00;;;;;;;8.70;7.03;;;13.70;99.90;;;13.80;91.87;100424.47;5020136;28;20260;-72
2022/06/20 06:32:37;;;;;;;9.63;6.80;;;13.70;99.90;;;13.81;91.56;100459.59;5024434;28;21410;-73
2022/06/20 06:35:22;;;;;;;8.80;6.73;;;13.70;99.90;;;13.80;91.28;100489.75;5026876;28;20910;-74
2022/06/20 06:38:00;;;;;;;10.53;6.97;;;13.80;99.90;;;13.88;89.46;100528.34;4992910;28;21046;-71
2022/06/20 06:40:37;;;;;;;9.40;5.47;;;13.80;99.90;;;13.99;88.72;100553.88;4997785;28;20441;-72
2022/06/20 06:43:19;;;;;;;10.67;6.13;;;13.80;99.90;;;14.01;88.45;100532.72;4988563;28;20444;-70
2022/06/20 06:45:57;;;;;;;9.80;5.60;;;13.90;99.90;;;14.16;87.46;100524.94;4962895;28;20461;-71
2022/06/20 06:48:38;;;;;;;9.93;7.00;;;14.00;99.90;;;14.25;87.04;100528.16;4989102;28;20444;-71
2022/06/20 06:51:15;;;;;;;9.80;5.80;;;14.10;99.90;;;14.54;87.21;100523.69;4988361;28;20817;-71
2022/06/20 06:53:51;;;;;;;9.03;6.07;;;14.30;99.90;;;14.76;86.02;100497.53;4982211;28;20544;-71
2022/06/20 06:56:29;;;;;;;13.50;7.97;;;14.50;99.90;;;14.93;84.96;100476.63;4985649;28;20448;-71
2022/06/20 06:59:10;;;;;;;9.13;6.20;;;14.70;99.90;;;15.21;83.94;100460.31;4985685;28;20477;-70
2022/06/20 07:01:44;;;;;;;12.53;6.80;;;14.90;99.90;;;15.40;80.38;100451.94;4981345;28;20471;-70
2022/06/20 07:04:19;;;;;;;9.77;5.87;;;15.20;99.90;;;15.66;80.75;100451.38;4967137;28;20450;-70
2022/06/20 07:06:58;;;;;;;8.93;5.93;;;15.40;99.90;;;15.58;78.52;100430.78;4969094;28;20448;-70
2022/06/20 07:09:34;;;;;;;8.27;6.00;;;15.40;99.90;;;15.53;79.46;100424.41;4979871;28;20440;-72
2022/06/20 07:12:13;;;;;;;9.47;6.30;;;15.40;99.90;;;15.70;79.62;100417.06;4977436;28;20453;-71
2022/06/20 07:14:46;;;;;;;8.83;5.77;;;15.50;99.90;;;15.33;78.62;100418.56;4980952;28;20762;-71
2022/06/20 07:17:23;;;;;;;7.87;6.37;;;15.30;99.90;;;15.32;79.41;100425.06;4980772;28;20439;-71
2022/06/20 07:19:53;;;;;;;6.97;5.37;;;15.20;99.90;;;15.19;79.91;100424.31;4982332;28;21017;-70
2022/06/20 07:22:24;;;;;;;8.90;6.00;;;15.10;99.90;;;15.04;81.34;100436.81;4982295;28;20469;-69
2022/06/20 07:24:57;;;;;;;6.13;5.50;;;15.00;99.90;;;14.98;81.42;100435.88;4971058;28;20616;-70
2022/06/20 07:27:36;;;;;;;7.13;6.13;;;14.90;99.90;;;14.94;82.12;100450.22;4986089;28;20480;-71
2022/06/20 07:30:14;;;;;;;9.37;5.73;;;14.80;99.90;;;14.88;82.65;100443.84;4984053;28;20433;-70
2022/06/20 07:32:52;;;;;;;6.30;5.70;;;14.80;99.90;;;14.92;81.73;100453.19;4968988;28;20560;-70
2022/06/20 07:35:37;;;;;;;9.83;6.80;;;14.80;99.90;;;14.85;82.46;100454.41;4985360;28;20463;-71
2022/06/20 07:38:14;;;;;;;9.20;7.80;;;14.80;99.90;;;14.92;82.40;100472.25;4983639;28;20448;-71
2022/06/20 07:40:56;;;;;;;8.70;6.47;;;14.70;99.90;;;15.04;82.25;100489.41;4982691;28;20481;-71
2022/06/20 07:43:35;;;;;;;9.33;6.70;;;14.80;99.90;;;15.35;81.04;100520.81;4986635;28;20451;-71
2022/06/20 07:46:15;;;;;;;7.53;6.83;;;15.00;99.90;;;15.37;80.77;100540.50;4989105;28;20439;-73
2022/06/20 07:48:51;;;;;;;6.60;5.97;;;15.10;99.90;;;15.25;80.00;100557.97;4993449;28;20438;-74
2022/06/20 07:51:28;;;;;;;6.00;5.40;;;15.10;99.90;;;15.17;80.85;100556.44;4993722;28;20457;-73
2022/06/20 07:54:07;;;;;;;6.83;5.33;;;15.00;99.90;;;15.18;80.63;100566.28;4988262;28;20440;-72
2022/06/20 07:56:42;;;;;;;8.13;5.63;;;15.00;99.90;;;15.36;80.56;100581.63;4987763;28;20789;-72
2022/06/20 07:59:18;;;;;;;6.60;6.00;;;15.10;99.90;;;15.58;79.35;100609.97;4986160;28;20525;-73
2022/06/20 08:01:58;;;;;;;8.10;5.33;;;15.30;99.90;;;15.49;78.93;100611.38;4985380;28;20436;-72
2022/06/20 08:04:33;;;;;;;8.17;5.70;;;15.20;99.90;;;15.59;78.70;100609.69;4985824;28;20446;-72
2022/06/20 08:07:09;;;;;;;10.37;6.07;;;15.30;99.90;;;15.67;79.68;100599.50;4980862;28;20888;-72
2022/06/20 08:09:46;;;;;;;5.43;4.93;;;15.40;99.90;;;15.65;75.46;100599.72;4980190;28;20416;-71
2022/06/20 08:12:44;;;;;;;5.23;4.73;;;15.40;99.90;;;15.52;77.70;100594.56;4984735;28;20832;-71
2022/06/20 08:15:23;;;;;;;6.47;4.90;;;15.30;99.90;;;15.59;78.09;100587.03;4986852;28;20964;-72
2022/06/20 08:17:55;;;;;;;5.67;5.13;;;15.40;99.90;;;15.64;77.85;100587.97;4985232;28;20444;-73
2022/06/20 08:20:33;;;;;;;7.10;4.73;;;15.40;99.90;;;15.90;78.29;100589.31;4986183;28;20543;-72
2022/06/20 08:23:12;;;;;;;7.87;5.23;;;15.50;99.90;;;16.03;74.40;100585.44;4986714;28;20465;-72
2022/06/20 08:25:48;;;;;;;6.23;4.63;;;15.60;99.90;;;16.03;75.63;100582.69;4985379;28;20416;-72
2022/06/20 08:28:22;;;;;;;5.83;4.50;;;15.70;99.90;;;16.16;74.77;100560.56;4986128;28;21208;-72
2022/06/20 08:30:58;;;;;;;5.50;4.73;;;15.80;99.90;;;16.38;74.63;100484.19;4982523;28;20435;-72
2022/06/20 08:33:41;;;;;;;9.20;6.37;;;16.00;99.90;;;16.52;74.70;100477.31;4985468;28;21005;-71
2022/06/20 08:36:21;;;;;;;8.77;4.77;;;16.20;99.90;;;16.69;73.92;100469.94;4984329;28;21023;-71
2022/06/20 08:39:03;;;;;;;5.87;4.80;;;16.30;99.90;;;16.54;74.73;100469.69;4983793;28;20448;-71
2022/06/20 08:42:10;;;;;;;11.87;6.13;;;16.30;99.90;;;16.34;75.09;100499.44;4985379;28;20508;-72
2022/06/20 08:45:25;;;;;;;11.10;6.33;;;16.20;99.90;;;15.99;76.59;100549.63;4996346;28;20507;-72
2022/06/20 08:48:52;;;;;;;6.80;6.03;;;15.90;99.90;;;16.17;77.42;100583.25;4996206;28;20538;-71
2022/06/20 08:52:21;;;;;;;5.17;4.67;;;15.80;99.90;;;16.10;75.26;100583.38;4997300;28;20473;-71
2022/06/20 08:55:37;;;;;;;5.00;4.20;;;15.90;99.90;;;15.98;75.50;100591.63;4997509;28;20536;-71
2022/06/20 08:58:23;;;;;;;7.30;5.73;;;15.80;99.90;;;15.96;75.23;100593.78;4990295;28;20421;-71
2022/06/20 09:01:03;;;;;;;7.70;5.67;;;15.80;99.90;;;15.70;75.88;100585.34;5004448;28;20563;-70
2022/06/20 09:04:05;;;;;;;5.67;4.40;;;15.70;99.90;;;15.60;77.87;100583.25;4991027;28;20541;-71
2022/06/20 09:07:21;;;;;;;5.77;4.67;;;15.50;99.90;;;15.63;76.68;100569.16;4983935;28;20493;-71
2022/06/20 09:10:33;;;;;;;4.70;3.90;;;15.50;99.90;;;15.32;77.41;100550.47;4987472;28;20430;-75
2022/06/20 09:13:48;;;;;;;6.70;4.60;;;15.40;99.90;;;15.48;77.89;100557.91;4989000;28;20467;-75
2022/06/20 09:16:32;;;;;;;7.80;5.50;;;15.30;99.90;;;15.44;78.74;100567.66;4988126;28;20461;-76
2022/06/20 09:19:44;;;;;;;9.00;5.90;;;15.30;99.90;;;15.51;77.11;100563.72;4986547;28;20508;-75
2022/06/20 09:22:29;;;;;;;4.70;4.20;;;15.30;99.90;;;15.49;77.46;100559.56;4985090;28;20516;-74
2022/06/20 09:25:16;;;;;;;6.43;4.97;;;15.30;99.90;;;15.63;76.22;100550.06;4985087;28;20442;-76
2022/06/20 09:28:01;;;;;;;8.93;4.30;;;15.40;99.90;;;15.65;76.83;100558.81;4983421;28;20948;-75
2022/06/20 09:30:41;;;;;;;5.20;4.07;;;15.40;99.90;;;15.78;76.00;100565.88;4984299;28;20440;-75
2022/06/20 09:33:39;;;;;;;6.83;4.50;;;15.50;99.90;;;15.86;75.71;100571.78;4988870;28;20466;-75
2022/06/20 09:36:52;;;;;;;7.00;4.90;;;15.60;99.90;;;15.86;77.08;100549.94;4989707;28;20499;-75
2022/06/20 09:39:56;;;;;;;9.03;4.90;;;15.50;99.90;;;15.98;75.60;100564.34;4974065;28;20561;-75
2022/06/20 09:42:38;;;;;;;11.33;7.47;;;15.70;99.90;;;15.96;75.45;100560.22;4986556;28;20470;-75
2022/06/20 09:45:21;;;;;;;37.73;14.67;;;15.70;99.90;;;16.09;75.82;100566.19;4990273;28;20443;-75
2022/06/20 09:48:06;;;;;;;5.67;5.07;;;15.70;99.90;;;16.03;75.26;100575.34;4983110;28;20409;-75
2022/06/20 09:51:03;;;;;;;6.83;5.77;;;15.70;99.90;;;16.05;75.34;100570.47;4974838;28;20420;-75
2022/06/20 09:53:55;;;;;;;7.23;5.10;;;15.70;99.90;;;15.99;76.03;100582.38;4981395;28;21038;-76
2022/06/20 09:56:36;;;;;;;6.13;5.53;;;15.80;99.90;;;15.93;76.04;100599.72;4989986;28;20736;-74
2022/06/20 09:59:24;;;;;;;7.37;5.07;;;15.80;99.90;;;15.65;77.08;100600.56;4990925;28;20853;-77
2022/06/20 10:02:08;;;;;;;6.83;5.90;;;15.60;99.90;;;15.61;77.71;100584.91;4986673;28;20481;-75
2022/06/20 10:04:57;;;;;;;7.40;5.23;;;15.50;99.90;;;15.65;77.70;100573.28;4984111;28;20418;-75
2022/06/20 10:07:48;;;;;;;7.03;5.10;;;15.50;99.90;;;15.66;77.09;100590.47;4984841;28;20844;-75
2022/06/20 10:10:30;;;;;;;6.73;4.00;;;15.60;99.90;;;15.37;77.22;100583.31;4988758;28;20861;-75
2022/06/20 10:13:14;;;;;;;6.33;5.80;;;15.40;99.90;;;15.29;78.90;100570.06;4990356;28;20455;-75
2022/06/20 10:15:51;;;;;;;10.30;6.83;;;15.30;99.90;;;15.46;78.28;100565.47;4982988;28;20525;-75
2022/06/20 10:18:32;;;;;;;11.90;7.13;;;15.30;99.90;;;15.16;79.86;100582.84;4975566;28;20453;-73
2022/06/20 10:21:13;;;;;;;11.80;7.40;;;15.10;99.90;;;15.21;80.61;100593.03;4983193;28;20850;-75
2022/06/20 10:24:10;;;;;;;12.00;6.20;;;15.10;99.90;;;15.25;79.56;100596.13;4999929;28;20525;-74
2022/06/20 10:27:22;;;;;;;6.57;5.40;;;15.10;99.90;;;15.16;80.83;100610.13;4994959;28;20401;-75
2022/06/20 10:30:12;;;;;;;8.17;6.70;;;15.10;99.90;;;15.16;82.12;100609.28;4969801;28;21025;-76
2022/06/20 10:32:58;;;;;;;8.53;6.17;;;15.10;99.90;;;15.19;82.83;100617.84;4982489;28;21081;-76
2022/06/20 10:35:45;;;;;;;6.33;5.70;;;15.00;99.90;;;15.22;83.20;100614.63;4971495;28;20442;-76
2022/06/20 10:38:29;;;;;;;8.47;5.00;;;15.10;99.90;;;15.41;81.36;100617.19;4986841;28;20438;-76
2022/06/20 10:41:08;;;;;;;8.07;5.00;;;15.20;99.90;;;15.10;82.58;100616.50;5000918;28;20469;-73
2022/06/20 10:43:49;;;;;;;8.50;5.90;;;15.10;99.90;;;15.23;82.68;100623.63;4986252;28;20966;-74
2022/06/20 10:46:27;;;;;;;7.67;5.93;;;15.10;99.90;;;15.29;82.17;100632.75;4986939;28;20786;-73
2022/06/20 10:49:30;;;;;;;6.00;5.27;;;15.10;99.90;;;15.37;80.42;100646.00;4988758;28;20788;-74
2022/06/20 10:52:30;;;;;;;5.97;5.07;;;15.20;99.90;;;15.50;81.10;100641.13;4983832;28;20424;-74
2022/06/20 10:55:18;;;;;;;5.03;4.53;;;15.30;99.90;;;15.59;80.28;100631.50;4991043;28;20464;-74
2022/06/20 10:58:01;;;;;;;9.87;5.23;;;15.30;99.90;;;15.71;79.57;100617.03;4963588;28;20961;-74
2022/06/20 11:00:42;;;;;;;5.50;4.10;;;15.50;99.90;;;15.80;79.39;100621.84;4985496;28;20442;-74
2022/06/20 11:03:40;;;;;;;5.83;4.10;;;15.50;99.90;;;15.86;79.05;100637.25;4985195;28;20496;-74
2022/06/20 11:06:30;;;;;;;5.80;4.10;;;15.50;99.90;;;15.62;79.32;100633.78;4982622;28;20479;-73
2022/06/20 11:09:10;;;;;;;5.00;4.50;;;15.50;99.90;;;15.62;80.18;100624.75;4986645;28;20447;-74
2022/06/20 11:11:49;;;;;;;6.90;4.50;;;15.50;99.90;;;15.64;80.04;100615.25;4990188;28;20489;-74
2022/06/20 11:14:44;;;;;;;5.40;4.20;;;15.40;99.90;;;15.87;79.75;100622.56;4984145;28;20420;-75
2022/06/20 11:17:26;;;;;;;4.40;4.00;;;15.60;99.90;;;15.81;79.20;100618.06;4981633;28;20453;-76